sensor_id;sensor_type;location;lat;lon;timestamp;P1;durP1;ratioP1;P2;durP2;ratioP2
47796;SDS011;33558;50.922;14.068;2023-02-04T00:04:49;8.27;;;1.73;;
47796;SDS011;33558;50.922;14.068;2023-02-04T00:13:05;3.83;;;0.90;;
47796;SDS011;33558;50.922;14.068;2023-02-04T00:15:50;1.30;;;0.67;;
47796;SDS011;33558;50.922;14.068;2023-02-04T00:27:20;1.37;;;0.60;;
47796;SDS011;33558;50.922;14.068;2023-02-04T00:33:43;2.43;;;0.50;;
47796;SDS011;33558;50.922;14.068;2023-02-04T00:36:33;2.90;;;0.63;;
47796;SDS011;33558;50.922;14.068;2023-02-04T00:39:14;2.73;;;0.43;;
47796;SDS011;33558;50.922;14.068;2023-02-04T00:54:18;1.43;;;0.40;;
47796;SDS011;33558;50.922;14.068;2023-02-04T02:04:12;1.63;;;0.93;;
47796;SDS011;33558;50.922;14.068;2023-02-04T02:07:01;2.40;;;1.17;;
47796;SDS011;33558;50.922;14.068;2023-02-04T02:09:32;2.87;;;1.20;;
47796;SDS011;33558;50.922;14.068;2023-02-04T02:12:06;1.80;;;1.20;;
47796;SDS011;33558;50.922;14.068;2023-02-04T02:15:32;2.13;;;1.10;;
47796;SDS011;33558;50.922;14.068;2023-02-04T02:23:49;4.00;;;2.10;;
47796;SDS011;33558;50.922;14.068;2023-02-04T02:26:47;2.67;;;1.83;;
47796;SDS011;33558;50.922;14.068;2023-02-04T02:29:18;3.30;;;2.20;;
47796;SDS011;33558;50.922;14.068;2023-02-04T02:31:51;2.67;;;1.70;;
47796;SDS011;33558;50.922;14.068;2023-02-04T02:34:42;3.97;;;2.43;;
47796;SDS011;33558;50.922;14.068;2023-02-04T02:37:25;3.70;;;2.23;;
47796;SDS011;33558;50.922;14.068;2023-02-04T02:40:35;3.20;;;1.70;;
47796;SDS011;33558;50.922;14.068;2023-02-04T02:43:05;2.80;;;1.53;;
47796;SDS011;33558;50.922;14.068;2023-02-04T02:46:14;3.17;;;1.73;;
47796;SDS011;33558;50.922;14.068;2023-02-04T03:05:01;4.83;;;2.47;;
47796;SDS011;33558;50.922;14.068;2023-02-04T03:07:49;2.80;;;1.90;;
47796;SDS011;33558;50.922;14.068;2023-02-04T03:10:31;3.90;;;2.50;;
47796;SDS011;33558;50.922;14.068;2023-02-04T03:13:08;3.67;;;2.50;;
47796;SDS011;33558;50.922;14.068;2023-02-04T03:19:19;3.70;;;2.50;;
47796;SDS011;33558;50.922;14.068;2023-02-04T03:29:24;4.40;;;2.60;;
47796;SDS011;33558;50.922;14.068;2023-02-04T05:14:19;2.50;;;1.70;;
47796;SDS011;33558;50.922;14.068;2023-02-04T05:16:46;3.17;;;1.67;;
47796;SDS011;33558;50.922;14.068;2023-02-04T05:19:13;2.10;;;1.23;;
47796;SDS011;33558;50.922;14.068;2023-02-04T05:21:39;2.30;;;1.37;;
47796;SDS011;33558;50.922;14.068;2023-02-04T05:24:06;2.00;;;1.20;;
47796;SDS011;33558;50.922;14.068;2023-02-04T05:26:33;2.70;;;1.50;;
47796;SDS011;33558;50.922;14.068;2023-02-04T05:28:59;3.47;;;1.70;;
47796;SDS011;33558;50.922;14.068;2023-02-04T05:31:27;2.13;;;1.63;;
47796;SDS011;33558;50.922;14.068;2023-02-04T05:33:54;2.20;;;1.60;;
47796;SDS011;33558;50.922;14.068;2023-02-04T05:36:20;3.60;;;1.33;;
47796;SDS011;33558;50.922;14.068;2023-02-04T05:38:47;1.93;;;1.37;;
47796;SDS011;33558;50.922;14.068;2023-02-04T05:41:14;3.13;;;1.33;;
47796;SDS011;33558;50.922;14.068;2023-02-04T05:43:40;2.80;;;1.47;;
47796;SDS011;33558;50.922;14.068;2023-02-04T05:46:08;2.27;;;1.37;;
47796;SDS011;33558;50.922;14.068;2023-02-04T05:48:36;2.20;;;1.50;;
47796;SDS011;33558;50.922;14.068;2023-02-04T05:51:04;2.73;;;1.70;;
47796;SDS011;33558;50.922;14.068;2023-02-04T05:53:31;2.77;;;1.70;;
47796;SDS011;33558;50.922;14.068;2023-02-04T05:55:57;2.67;;;1.60;;
47796;SDS011;33558;50.922;14.068;2023-02-04T05:58:24;2.67;;;1.63;;
47796;SDS011;33558;50.922;14.068;2023-02-04T06:00:57;1.97;;;1.47;;
47796;SDS011;33558;50.922;14.068;2023-02-04T06:03:24;2.27;;;1.53;;
47796;SDS011;33558;50.922;14.068;2023-02-04T06:05:52;2.60;;;1.23;;
47796;SDS011;33558;50.922;14.068;2023-02-04T06:08:19;1.77;;;1.03;;
47796;SDS011;33558;50.922;14.068;2023-02-04T06:10:45;2.50;;;1.43;;
47796;SDS011;33558;50.922;14.068;2023-02-04T06:13:12;2.20;;;1.23;;
47796;SDS011;33558;50.922;14.068;2023-02-04T06:15:38;2.70;;;1.40;;
47796;SDS011;33558;50.922;14.068;2023-02-04T06:18:05;2.73;;;1.80;;
47796;SDS011;33558;50.922;14.068;2023-02-04T06:20:32;2.37;;;1.20;;
47796;SDS011;33558;50.922;14.068;2023-02-04T06:23:00;2.00;;;1.20;;
47796;SDS011;33558;50.922;14.068;2023-02-04T06:25:27;3.07;;;1.13;;
47796;SDS011;33558;50.922;14.068;2023-02-04T06:27:54;1.53;;;1.20;;
47796;SDS011;33558;50.922;14.068;2023-02-04T06:30:21;3.70;;;1.30;;
47796;SDS011;33558;50.922;14.068;2023-02-04T06:32:48;2.10;;;1.40;;
47796;SDS011;33558;50.922;14.068;2023-02-04T06:35:14;1.63;;;1.10;;
47796;SDS011;33558;50.922;14.068;2023-02-04T06:37:42;1.97;;;1.30;;
47796;SDS011;33558;50.922;14.068;2023-02-04T06:40:11;1.80;;;1.10;;
47796;SDS011;33558;50.922;14.068;2023-02-04T06:42:38;1.80;;;1.10;;
47796;SDS011;33558;50.922;14.068;2023-02-04T06:45:05;2.23;;;1.23;;
47796;SDS011;33558;50.922;14.068;2023-02-04T06:47:32;1.97;;;1.27;;
47796;SDS011;33558;50.922;14.068;2023-02-04T06:49:58;2.77;;;1.60;;
47796;SDS011;33558;50.922;14.068;2023-02-04T06:52:25;2.43;;;1.33;;
47796;SDS011;33558;50.922;14.068;2023-02-04T06:54:52;3.33;;;2.27;;
47796;SDS011;33558;50.922;14.068;2023-02-04T06:57:20;2.57;;;1.43;;
47796;SDS011;33558;50.922;14.068;2023-02-04T06:59:46;2.03;;;1.30;;
47796;SDS011;33558;50.922;14.068;2023-02-04T07:02:13;2.63;;;1.17;;
47796;SDS011;33558;50.922;14.068;2023-02-04T07:04:39;2.70;;;1.20;;
47796;SDS011;33558;50.922;14.068;2023-02-04T07:07:07;3.43;;;1.30;;
47796;SDS011;33558;50.922;14.068;2023-02-04T07:09:34;2.57;;;1.63;;
47796;SDS011;33558;50.922;14.068;2023-02-04T07:12:01;4.10;;;1.50;;
47796;SDS011;33558;50.922;14.068;2023-02-04T07:14:29;2.80;;;1.50;;
47796;SDS011;33558;50.922;14.068;2023-02-04T07:16:56;2.27;;;1.23;;
47796;SDS011;33558;50.922;14.068;2023-02-04T07:19:23;3.37;;;1.37;;
47796;SDS011;33558;50.922;14.068;2023-02-04T07:21:49;3.90;;;1.20;;
47796;SDS011;33558;50.922;14.068;2023-02-04T07:24:18;3.07;;;1.63;;
47796;SDS011;33558;50.922;14.068;2023-02-04T07:26:45;2.43;;;1.37;;
47796;SDS011;33558;50.922;14.068;2023-02-04T07:29:11;4.03;;;1.73;;
47796;SDS011;33558;50.922;14.068;2023-02-04T07:31:39;2.27;;;1.20;;
47796;SDS011;33558;50.922;14.068;2023-02-04T07:34:06;3.57;;;1.67;;
47796;SDS011;33558;50.922;14.068;2023-02-04T07:36:32;4.67;;;2.00;;
47796;SDS011;33558;50.922;14.068;2023-02-04T07:38:59;3.30;;;1.53;;
47796;SDS011;33558;50.922;14.068;2023-02-04T07:41:26;3.30;;;1.77;;
47796;SDS011;33558;50.922;14.068;2023-02-04T07:43:52;7.40;;;1.53;;
47796;SDS011;33558;50.922;14.068;2023-02-04T07:46:19;5.10;;;1.60;;
47796;SDS011;33558;50.922;14.068;2023-02-04T07:48:47;2.40;;;1.30;;
47796;SDS011;33558;50.922;14.068;2023-02-04T07:51:13;4.17;;;1.67;;
47796;SDS011;33558;50.922;14.068;2023-02-04T07:53:40;2.83;;;1.20;;
47796;SDS011;33558;50.922;14.068;2023-02-04T07:56:07;4.47;;;1.73;;
47796;SDS011;33558;50.922;14.068;2023-02-04T07:58:33;4.37;;;1.70;;
47796;SDS011;33558;50.922;14.068;2023-02-04T08:01:00;3.53;;;1.60;;
47796;SDS011;33558;50.922;14.068;2023-02-04T08:03:27;3.00;;;1.40;;
47796;SDS011;33558;50.922;14.068;2023-02-04T08:05:54;2.97;;;1.33;;
47796;SDS011;33558;50.922;14.068;2023-02-04T08:08:21;3.77;;;2.00;;
47796;SDS011;33558;50.922;14.068;2023-02-04T08:10:48;3.60;;;1.50;;
47796;SDS011;33558;50.922;14.068;2023-02-04T08:13:15;7.37;;;2.37;;
47796;SDS011;33558;50.922;14.068;2023-02-04T08:15:42;3.37;;;1.40;;
47796;SDS011;33558;50.922;14.068;2023-02-04T08:18:08;2.73;;;1.53;;
47796;SDS011;33558;50.922;14.068;2023-02-04T08:20:35;2.17;;;1.40;;
47796;SDS011;33558;50.922;14.068;2023-02-04T08:23:03;4.93;;;1.80;;
47796;SDS011;33558;50.922;14.068;2023-02-04T08:25:30;3.90;;;1.60;;
47796;SDS011;33558;50.922;14.068;2023-02-04T08:27:56;3.30;;;1.57;;
47796;SDS011;33558;50.922;14.068;2023-02-04T08:30:23;3.33;;;1.40;;
47796;SDS011;33558;50.922;14.068;2023-02-04T08:32:49;2.70;;;1.63;;
47796;SDS011;33558;50.922;14.068;2023-02-04T08:35:16;4.20;;;1.37;;
47796;SDS011;33558;50.922;14.068;2023-02-04T08:37:43;3.47;;;1.20;;
47796;SDS011;33558;50.922;14.068;2023-02-04T08:40:11;3.37;;;1.50;;
47796;SDS011;33558;50.922;14.068;2023-02-04T08:42:38;2.90;;;1.77;;
47796;SDS011;33558;50.922;14.068;2023-02-04T08:45:04;3.70;;;1.73;;
47796;SDS011;33558;50.922;14.068;2023-02-04T08:47:31;3.13;;;1.90;;
47796;SDS011;33558;50.922;14.068;2023-02-04T08:49:58;3.70;;;1.80;;
47796;SDS011;33558;50.922;14.068;2023-02-04T08:52:24;4.40;;;2.07;;
47796;SDS011;33558;50.922;14.068;2023-02-04T08:54:51;4.13;;;1.77;;
47796;SDS011;33558;50.922;14.068;2023-02-04T08:57:19;3.90;;;2.00;;
47796;SDS011;33558;50.922;14.068;2023-02-04T08:59:46;3.60;;;2.17;;
47796;SDS011;33558;50.922;14.068;2023-02-04T09:02:12;3.47;;;1.77;;
47796;SDS011;33558;50.922;14.068;2023-02-04T09:04:39;4.37;;;1.77;;
47796;SDS011;33558;50.922;14.068;2023-02-04T09:07:05;3.93;;;1.93;;
47796;SDS011;33558;50.922;14.068;2023-02-04T09:09:32;4.53;;;2.03;;
47796;SDS011;33558;50.922;14.068;2023-02-04T09:11:58;8.83;;;2.20;;
47796;SDS011;33558;50.922;14.068;2023-02-04T09:14:27;4.33;;;2.03;;
47796;SDS011;33558;50.922;14.068;2023-02-04T09:16:54;4.07;;;2.23;;
47796;SDS011;33558;50.922;14.068;2023-02-04T09:19:20;5.20;;;2.13;;
47796;SDS011;33558;50.922;14.068;2023-02-04T09:21:49;5.17;;;2.10;;
47796;SDS011;33558;50.922;14.068;2023-02-04T09:24:16;5.03;;;2.43;;
47796;SDS011;33558;50.922;14.068;2023-02-04T09:26:42;5.40;;;2.33;;
47796;SDS011;33558;50.922;14.068;2023-02-04T09:29:09;4.43;;;1.97;;
47796;SDS011;33558;50.922;14.068;2023-02-04T09:31:37;3.17;;;1.80;;
47796;SDS011;33558;50.922;14.068;2023-02-04T09:34:04;3.37;;;1.83;;
47796;SDS011;33558;50.922;14.068;2023-02-04T09:36:30;3.63;;;1.83;;
47796;SDS011;33558;50.922;14.068;2023-02-04T09:39:02;4.93;;;2.20;;
47796;SDS011;33558;50.922;14.068;2023-02-04T09:41:30;4.50;;;2.57;;
47796;SDS011;33558;50.922;14.068;2023-02-04T09:43:57;5.30;;;2.13;;
47796;SDS011;33558;50.922;14.068;2023-02-04T09:46:24;3.53;;;1.80;;
47796;SDS011;33558;50.922;14.068;2023-02-04T09:48:54;3.47;;;1.83;;
47796;SDS011;33558;50.922;14.068;2023-02-04T09:51:21;3.87;;;1.70;;
47796;SDS011;33558;50.922;14.068;2023-02-04T09:53:49;4.83;;;2.00;;
47796;SDS011;33558;50.922;14.068;2023-02-04T09:56:17;3.70;;;2.00;;
47796;SDS011;33558;50.922;14.068;2023-02-04T09:58:44;4.13;;;2.20;;
47796;SDS011;33558;50.922;14.068;2023-02-04T10:01:12;3.00;;;1.90;;
47796;SDS011;33558;50.922;14.068;2023-02-04T10:03:40;3.17;;;2.10;;
47796;SDS011;33558;50.922;14.068;2023-02-04T10:06:12;2.77;;;2.00;;
47796;SDS011;33558;50.922;14.068;2023-02-04T10:08:40;2.10;;;1.50;;
47796;SDS011;33558;50.922;14.068;2023-02-04T10:11:07;5.07;;;2.30;;
47796;SDS011;33558;50.922;14.068;2023-02-04T10:13:35;3.50;;;1.80;;
47796;SDS011;33558;50.922;14.068;2023-02-04T10:16:05;4.83;;;2.27;;
47796;SDS011;33558;50.922;14.068;2023-02-04T10:18:38;4.25;;;2.30;;
47796;SDS011;33558;50.922;14.068;2023-02-04T10:21:10;4.03;;;1.53;;
47796;SDS011;33558;50.922;14.068;2023-02-04T10:23:40;4.20;;;1.63;;
47796;SDS011;33558;50.922;14.068;2023-02-04T10:26:08;5.13;;;1.63;;
47796;SDS011;33558;50.922;14.068;2023-02-04T10:28:36;3.30;;;1.83;;
47796;SDS011;33558;50.922;14.068;2023-02-04T10:31:04;4.07;;;1.80;;
47796;SDS011;33558;50.922;14.068;2023-02-04T10:33:32;4.50;;;2.23;;
47796;SDS011;33558;50.922;14.068;2023-02-04T10:36:02;4.23;;;1.87;;
47796;SDS011;33558;50.922;14.068;2023-02-04T10:38:31;4.03;;;2.10;;
47796;SDS011;33558;50.922;14.068;2023-02-04T10:41:01;4.40;;;1.87;;
47796;SDS011;33558;50.922;14.068;2023-02-04T10:43:28;3.60;;;1.77;;
47796;SDS011;33558;50.922;14.068;2023-02-04T10:45:56;6.13;;;1.57;;
47796;SDS011;33558;50.922;14.068;2023-02-04T10:48:23;5.47;;;1.93;;
47796;SDS011;33558;50.922;14.068;2023-02-04T10:50:51;4.23;;;1.90;;
47796;SDS011;33558;50.922;14.068;2023-02-04T10:53:18;4.40;;;1.70;;
47796;SDS011;33558;50.922;14.068;2023-02-04T10:56:05;5.40;;;1.63;;
47796;SDS011;33558;50.922;14.068;2023-02-04T10:58:37;5.63;;;1.77;;
47796;SDS011;33558;50.922;14.068;2023-02-04T11:01:07;3.60;;;1.83;;
47796;SDS011;33558;50.922;14.068;2023-02-04T11:03:34;4.23;;;1.50;;
47796;SDS011;33558;50.922;14.068;2023-02-04T11:06:04;4.93;;;1.50;;
47796;SDS011;33558;50.922;14.068;2023-02-04T11:08:35;4.03;;;2.00;;
47796;SDS011;33558;50.922;14.068;2023-02-04T11:11:04;4.13;;;1.47;;
47796;SDS011;33558;50.922;14.068;2023-02-04T11:13:40;4.33;;;1.20;;
47796;SDS011;33558;50.922;14.068;2023-02-04T11:16:10;3.97;;;1.60;;
47796;SDS011;33558;50.922;14.068;2023-02-04T11:18:49;3.67;;;1.30;;
47796;SDS011;33558;50.922;14.068;2023-02-04T11:21:21;3.17;;;1.30;;
47796;SDS011;33558;50.922;14.068;2023-02-04T11:23:50;2.37;;;1.60;;
47796;SDS011;33558;50.922;14.068;2023-02-04T11:26:34;2.90;;;1.67;;
47796;SDS011;33558;50.922;14.068;2023-02-04T11:31:56;3.77;;;1.40;;
47796;SDS011;33558;50.922;14.068;2023-02-04T11:34:35;3.43;;;1.30;;
47796;SDS011;33558;50.922;14.068;2023-02-04T11:37:15;3.08;;;1.80;;
47796;SDS011;33558;50.922;14.068;2023-02-04T11:39:57;4.03;;;1.52;;
47796;SDS011;33558;50.922;14.068;2023-02-04T11:42:28;2.87;;;1.87;;
47796;SDS011;33558;50.922;14.068;2023-02-04T11:44:58;3.50;;;1.70;;
47796;SDS011;33558;50.922;14.068;2023-02-04T11:47:26;4.00;;;1.80;;
47796;SDS011;33558;50.922;14.068;2023-02-04T11:50:00;6.80;;;3.03;;
47796;SDS011;33558;50.922;14.068;2023-02-04T11:52:28;2.57;;;1.73;;
47796;SDS011;33558;50.922;14.068;2023-02-04T11:54:56;4.37;;;1.90;;
47796;SDS011;33558;50.922;14.068;2023-02-04T11:57:24;3.63;;;2.00;;
47796;SDS011;33558;50.922;14.068;2023-02-04T11:59:53;4.67;;;2.43;;
47796;SDS011;33558;50.922;14.068;2023-02-04T12:02:23;2.97;;;1.90;;
47796;SDS011;33558;50.922;14.068;2023-02-04T12:04:51;2.30;;;1.73;;
47796;SDS011;33558;50.922;14.068;2023-02-04T12:07:20;2.77;;;1.47;;
47796;SDS011;33558;50.922;14.068;2023-02-04T12:09:52;4.53;;;2.63;;
47796;SDS011;33558;50.922;14.068;2023-02-04T12:12:23;2.70;;;1.20;;
47796;SDS011;33558;50.922;14.068;2023-02-04T12:14:57;3.77;;;2.00;;
47796;SDS011;33558;50.922;14.068;2023-02-04T12:17:28;2.72;;;2.30;;
47796;SDS011;33558;50.922;14.068;2023-02-04T12:19:55;3.37;;;2.10;;
47796;SDS011;33558;50.922;14.068;2023-02-04T12:22:22;5.20;;;2.60;;
47796;SDS011;33558;50.922;14.068;2023-02-04T12:24:49;2.73;;;1.80;;
47796;SDS011;33558;50.922;14.068;2023-02-04T12:27:16;4.00;;;2.50;;
47796;SDS011;33558;50.922;14.068;2023-02-04T12:29:44;4.27;;;1.60;;
47796;SDS011;33558;50.922;14.068;2023-02-04T12:32:12;3.60;;;2.00;;
47796;SDS011;33558;50.922;14.068;2023-02-04T12:34:40;4.40;;;1.50;;
47796;SDS011;33558;50.922;14.068;2023-02-04T12:37:07;3.00;;;1.83;;
47796;SDS011;33558;50.922;14.068;2023-02-04T12:39:35;3.30;;;2.00;;
47796;SDS011;33558;50.922;14.068;2023-02-04T12:42:01;4.17;;;1.60;;
47796;SDS011;33558;50.922;14.068;2023-02-04T12:44:29;3.97;;;1.60;;
47796;SDS011;33558;50.922;14.068;2023-02-04T12:46:56;3.50;;;1.07;;
47796;SDS011;33558;50.922;14.068;2023-02-04T12:49:25;2.60;;;1.17;;
47796;SDS011;33558;50.922;14.068;2023-02-04T12:51:52;1.90;;;1.10;;
47796;SDS011;33558;50.922;14.068;2023-02-04T12:54:22;1.80;;;1.00;;
47796;SDS011;33558;50.922;14.068;2023-02-04T12:56:50;3.03;;;0.93;;
47796;SDS011;33558;50.922;14.068;2023-02-04T12:59:17;3.37;;;0.97;;
47796;SDS011;33558;50.922;14.068;2023-02-04T13:01:44;3.30;;;0.77;;
47796;SDS011;33558;50.922;14.068;2023-02-04T13:04:11;2.13;;;1.03;;
47796;SDS011;33558;50.922;14.068;2023-02-04T13:06:39;2.47;;;1.13;;
47796;SDS011;33558;50.922;14.068;2023-02-04T13:09:06;3.33;;;1.13;;
47796;SDS011;33558;50.922;14.068;2023-02-04T13:11:34;2.87;;;1.40;;
47796;SDS011;33558;50.922;14.068;2023-02-04T13:14:01;3.63;;;1.20;;
47796;SDS011;33558;50.922;14.068;2023-02-04T13:16:30;2.67;;;1.30;;
47796;SDS011;33558;50.922;14.068;2023-02-04T13:18:57;2.63;;;0.90;;
47796;SDS011;33558;50.922;14.068;2023-02-04T13:21:24;1.30;;;1.00;;
47796;SDS011;33558;50.922;14.068;2023-02-04T13:23:52;2.43;;;1.20;;
47796;SDS011;33558;50.922;14.068;2023-02-04T13:26:19;1.67;;;1.10;;
47796;SDS011;33558;50.922;14.068;2023-02-04T13:28:47;1.67;;;1.03;;
47796;SDS011;33558;50.922;14.068;2023-02-04T13:31:15;3.67;;;1.20;;
47796;SDS011;33558;50.922;14.068;2023-02-04T13:33:42;2.53;;;1.27;;
47796;SDS011;33558;50.922;14.068;2023-02-04T13:36:11;2.33;;;1.30;;
47796;SDS011;33558;50.922;14.068;2023-02-04T13:38:38;3.50;;;1.40;;
47796;SDS011;33558;50.922;14.068;2023-02-04T13:41:08;3.03;;;1.30;;
47796;SDS011;33558;50.922;14.068;2023-02-04T13:43:35;1.90;;;1.20;;
47796;SDS011;33558;50.922;14.068;2023-02-04T13:46:04;1.83;;;1.03;;
47796;SDS011;33558;50.922;14.068;2023-02-04T13:48:31;1.13;;;0.73;;
47796;SDS011;33558;50.922;14.068;2023-02-04T13:50:59;1.00;;;0.60;;
47796;SDS011;33558;50.922;14.068;2023-02-04T13:53:26;1.77;;;1.20;;
47796;SDS011;33558;50.922;14.068;2023-02-04T13:55:55;2.17;;;1.00;;
47796;SDS011;33558;50.922;14.068;2023-02-04T13:58:24;1.87;;;1.00;;
47796;SDS011;33558;50.922;14.068;2023-02-04T14:00:51;1.43;;;0.70;;
47796;SDS011;33558;50.922;14.068;2023-02-04T14:03:21;1.87;;;0.90;;
47796;SDS011;33558;50.922;14.068;2023-02-04T14:05:49;1.60;;;0.50;;
47796;SDS011;33558;50.922;14.068;2023-02-04T14:08:16;4.30;;;1.63;;
47796;SDS011;33558;50.922;14.068;2023-02-04T14:10:43;1.87;;;0.97;;
47796;SDS011;33558;50.922;14.068;2023-02-04T14:13:11;2.33;;;0.63;;
47796;SDS011;33558;50.922;14.068;2023-02-04T14:15:40;1.93;;;0.90;;
47796;SDS011;33558;50.922;14.068;2023-02-04T14:18:06;4.57;;;2.00;;
47796;SDS011;33558;50.922;14.068;2023-02-04T14:20:34;5.73;;;2.70;;
47796;SDS011;33558;50.922;14.068;2023-02-04T14:23:02;6.10;;;2.97;;
47796;SDS011;33558;50.922;14.068;2023-02-04T14:25:29;7.27;;;3.67;;
47796;SDS011;33558;50.922;14.068;2023-02-04T14:27:58;2.20;;;0.90;;
47796;SDS011;33558;50.922;14.068;2023-02-04T14:30:25;1.67;;;0.80;;
47796;SDS011;33558;50.922;14.068;2023-02-04T14:32:54;2.70;;;1.10;;
47796;SDS011;33558;50.922;14.068;2023-02-04T14:35:22;1.47;;;0.87;;
47796;SDS011;33558;50.922;14.068;2023-02-04T14:37:50;1.87;;;1.00;;
47796;SDS011;33558;50.922;14.068;2023-02-04T14:40:18;3.07;;;1.10;;
47796;SDS011;33558;50.922;14.068;2023-02-04T14:42:45;2.67;;;1.47;;
47796;SDS011;33558;50.922;14.068;2023-02-04T14:45:12;6.73;;;3.93;;
47796;SDS011;33558;50.922;14.068;2023-02-04T14:47:40;4.90;;;2.60;;
47796;SDS011;33558;50.922;14.068;2023-02-04T14:50:09;3.63;;;1.60;;
47796;SDS011;33558;50.922;14.068;2023-02-04T14:52:37;2.73;;;1.10;;
47796;SDS011;33558;50.922;14.068;2023-02-04T14:55:03;2.50;;;0.67;;
47796;SDS011;33558;50.922;14.068;2023-02-04T14:57:31;2.27;;;0.60;;
47796;SDS011;33558;50.922;14.068;2023-02-04T14:59:57;1.63;;;0.63;;
47796;SDS011;33558;50.922;14.068;2023-02-04T15:02:24;2.77;;;0.90;;
47796;SDS011;33558;50.922;14.068;2023-02-04T15:04:51;2.60;;;1.10;;
47796;SDS011;33558;50.922;14.068;2023-02-04T15:07:19;2.23;;;0.87;;
47796;SDS011;33558;50.922;14.068;2023-02-04T15:09:46;2.30;;;0.90;;
47796;SDS011;33558;50.922;14.068;2023-02-04T15:12:13;2.63;;;0.90;;
47796;SDS011;33558;50.922;14.068;2023-02-04T15:14:40;2.20;;;0.97;;
47796;SDS011;33558;50.922;14.068;2023-02-04T15:17:06;3.43;;;1.30;;
47796;SDS011;33558;50.922;14.068;2023-02-04T15:19:33;1.83;;;0.80;;
47796;SDS011;33558;50.922;14.068;2023-02-04T15:22:00;3.20;;;1.00;;
47796;SDS011;33558;50.922;14.068;2023-02-04T15:24:28;2.37;;;1.13;;
47796;SDS011;33558;50.922;14.068;2023-02-04T15:26:54;3.10;;;0.90;;
47796;SDS011;33558;50.922;14.068;2023-02-04T15:29:21;2.30;;;0.70;;
47796;SDS011;33558;50.922;14.068;2023-02-04T15:31:48;2.23;;;1.00;;
47796;SDS011;33558;50.922;14.068;2023-02-04T15:34:14;3.73;;;1.40;;
47796;SDS011;33558;50.922;14.068;2023-02-04T15:36:41;3.60;;;1.20;;
47796;SDS011;33558;50.922;14.068;2023-02-04T15:39:08;4.17;;;1.30;;
47796;SDS011;33558;50.922;14.068;2023-02-04T15:41:36;2.80;;;1.43;;
47796;SDS011;33558;50.922;14.068;2023-02-04T15:44:03;4.37;;;2.60;;
47796;SDS011;33558;50.922;14.068;2023-02-04T15:46:30;3.87;;;2.10;;
47796;SDS011;33558;50.922;14.068;2023-02-04T15:48:56;3.80;;;1.60;;
47796;SDS011;33558;50.922;14.068;2023-02-04T15:51:24;5.17;;;2.60;;
47796;SDS011;33558;50.922;14.068;2023-02-04T15:53:50;4.70;;;3.30;;
47796;SDS011;33558;50.922;14.068;2023-02-04T15:56:17;4.73;;;2.53;;
47796;SDS011;33558;50.922;14.068;2023-02-04T15:58:45;2.43;;;1.20;;
47796;SDS011;33558;50.922;14.068;2023-02-04T16:01:12;6.93;;;4.40;;
47796;SDS011;33558;50.922;14.068;2023-02-04T16:03:39;3.60;;;2.40;;
47796;SDS011;33558;50.922;14.068;2023-02-04T16:06:08;4.17;;;2.10;;
47796;SDS011;33558;50.922;14.068;2023-02-04T16:08:35;2.57;;;1.77;;
47796;SDS011;33558;50.922;14.068;2023-02-04T16:11:03;2.90;;;1.10;;
47796;SDS011;33558;50.922;14.068;2023-02-04T16:13:30;4.20;;;2.80;;
47796;SDS011;33558;50.922;14.068;2023-02-04T16:15:58;2.67;;;1.17;;
47796;SDS011;33558;50.922;14.068;2023-02-04T16:18:24;3.73;;;1.57;;
47796;SDS011;33558;50.922;14.068;2023-02-04T16:20:51;2.83;;;1.27;;
47796;SDS011;33558;50.922;14.068;2023-02-04T16:23:18;3.27;;;1.33;;
47796;SDS011;33558;50.922;14.068;2023-02-04T16:25:44;2.07;;;1.40;;
47796;SDS011;33558;50.922;14.068;2023-02-04T16:28:11;5.30;;;2.13;;
47796;SDS011;33558;50.922;14.068;2023-02-04T16:30:38;3.37;;;1.80;;
47796;SDS011;33558;50.922;14.068;2023-02-04T16:33:06;2.60;;;1.47;;
47796;SDS011;33558;50.922;14.068;2023-02-04T16:35:33;11.93;;;7.73;;
47796;SDS011;33558;50.922;14.068;2023-02-04T16:38:22;4.30;;;1.53;;
47796;SDS011;33558;50.922;14.068;2023-02-04T16:40:49;4.37;;;2.23;;
47796;SDS011;33558;50.922;14.068;2023-02-04T16:43:16;9.77;;;5.03;;
47796;SDS011;33558;50.922;14.068;2023-02-04T16:45:43;10.40;;;5.70;;
47796;SDS011;33558;50.922;14.068;2023-02-04T16:48:09;16.17;;;12.00;;
47796;SDS011;33558;50.922;14.068;2023-02-04T16:50:37;11.37;;;7.73;;
47796;SDS011;33558;50.922;14.068;2023-02-04T16:53:04;15.77;;;10.57;;
47796;SDS011;33558;50.922;14.068;2023-02-04T16:55:33;12.70;;;10.80;;
47796;SDS011;33558;50.922;14.068;2023-02-04T16:57:59;9.60;;;6.67;;
47796;SDS011;33558;50.922;14.068;2023-02-04T17:00:26;6.37;;;5.23;;
47796;SDS011;33558;50.922;14.068;2023-02-04T17:02:53;6.33;;;4.50;;
47796;SDS011;33558;50.922;14.068;2023-02-04T17:05:19;6.20;;;2.60;;
47796;SDS011;33558;50.922;14.068;2023-02-04T17:07:46;4.87;;;1.90;;
47796;SDS011;33558;50.922;14.068;2023-02-04T17:10:13;3.70;;;1.80;;
47796;SDS011;33558;50.922;14.068;2023-02-04T17:12:41;5.50;;;2.30;;
47796;SDS011;33558;50.922;14.068;2023-02-04T17:15:08;5.67;;;1.83;;
47796;SDS011;33558;50.922;14.068;2023-02-04T17:17:35;4.83;;;1.80;;
47796;SDS011;33558;50.922;14.068;2023-02-04T17:20:02;5.03;;;3.03;;
47796;SDS011;33558;50.922;14.068;2023-02-04T17:22:29;3.97;;;2.37;;
47796;SDS011;33558;50.922;14.068;2023-02-04T17:24:56;4.07;;;1.53;;
47796;SDS011;33558;50.922;14.068;2023-02-04T17:27:23;2.80;;;1.70;;
47796;SDS011;33558;50.922;14.068;2023-02-04T17:29:51;2.63;;;1.80;;
47796;SDS011;33558;50.922;14.068;2023-02-04T17:32:18;3.97;;;2.10;;
47796;SDS011;33558;50.922;14.068;2023-02-04T17:34:44;4.60;;;2.43;;
47796;SDS011;33558;50.922;14.068;2023-02-04T17:37:11;4.20;;;2.43;;
47796;SDS011;33558;50.922;14.068;2023-02-04T17:39:38;5.20;;;1.73;;
47796;SDS011;33558;50.922;14.068;2023-02-04T17:42:04;3.47;;;2.30;;
47796;SDS011;33558;50.922;14.068;2023-02-04T17:44:31;4.27;;;2.20;;
47796;SDS011;33558;50.922;14.068;2023-02-04T17:46:59;2.90;;;1.40;;
47796;SDS011;33558;50.922;14.068;2023-02-04T17:49:28;4.07;;;1.73;;
47796;SDS011;33558;50.922;14.068;2023-02-04T17:51:55;2.77;;;1.40;;
47796;SDS011;33558;50.922;14.068;2023-02-04T17:54:22;4.00;;;1.63;;
47796;SDS011;33558;50.922;14.068;2023-02-04T17:56:49;3.33;;;1.70;;
47796;SDS011;33558;50.922;14.068;2023-02-04T17:59:16;5.27;;;2.77;;
47796;SDS011;33558;50.922;14.068;2023-02-04T18:01:42;5.60;;;2.30;;
47796;SDS011;33558;50.922;14.068;2023-02-04T18:04:12;6.03;;;2.73;;
47796;SDS011;33558;50.922;14.068;2023-02-04T18:06:39;4.97;;;2.53;;
47796;SDS011;33558;50.922;14.068;2023-02-04T18:09:10;3.63;;;2.23;;
47796;SDS011;33558;50.922;14.068;2023-02-04T18:11:38;5.80;;;2.10;;
47796;SDS011;33558;50.922;14.068;2023-02-04T18:14:09;5.03;;;2.00;;
47796;SDS011;33558;50.922;14.068;2023-02-04T18:16:38;5.77;;;2.33;;
47796;SDS011;33558;50.922;14.068;2023-02-04T18:19:09;5.77;;;2.53;;
47796;SDS011;33558;50.922;14.068;2023-02-04T18:21:44;3.67;;;1.77;;
47796;SDS011;33558;50.922;14.068;2023-02-04T18:24:12;5.13;;;2.70;;
47796;SDS011;33558;50.922;14.068;2023-02-04T18:26:43;3.73;;;2.13;;
47796;SDS011;33558;50.922;14.068;2023-02-04T18:29:15;6.00;;;1.93;;
47796;SDS011;33558;50.922;14.068;2023-02-04T18:31:48;4.37;;;1.93;;
47796;SDS011;33558;50.922;14.068;2023-02-04T18:34:26;8.67;;;3.30;;
47796;SDS011;33558;50.922;14.068;2023-02-04T18:36:53;6.10;;;3.40;;
47796;SDS011;33558;50.922;14.068;2023-02-04T18:39:22;7.87;;;2.80;;
47796;SDS011;33558;50.922;14.068;2023-02-04T18:41:51;5.77;;;3.27;;
47796;SDS011;33558;50.922;14.068;2023-02-04T18:44:24;5.83;;;3.00;;